Time;durP1;ratioP1;P1;durP2;ratioP2;P2;SDS_P1;SDS_P2;PMS_P1;PMS_P2;Temp;Humidity;BMP_temperature;BMP_pressure;BME280_temperature;BME280_humidity;BME280_pressure;Samples;Min_cycle;Max_cycle;Signal;HPM_P1;HPM_P2
2023/07/27 00:00:42;;;;;;;12.63;5.10;;;13.80;99.90;;;;;;5103944;28;20078;-75
2023/07/27 00:03:08;;;;;;;8.30;5.35;;;13.80;99.90;;;;;;5110103;28;20154;-74
2023/07/27 00:05:33;;;;;;;11.30;5.05;;;13.90;99.90;;;;;;5109426;27;20145;-76
2023/07/27 00:08:01;;;;;;;9.10;5.35;;;13.80;99.90;;;;;;5114323;27;20482;-74
2023/07/27 00:10:28;;;;;;;14.00;6.05;;;13.90;99.90;;;;;;5114798;27;20039;-75
2023/07/27 00:12:54;;;;;;;13.63;6.20;;;13.80;99.90;;;;;;5116489;27;20079;-75
2023/07/27 00:15:20;;;;;;;10.55;5.70;;;13.80;99.90;;;;;;5115459;28;20055;-74
2023/07/27 00:17:45;;;;;;;14.52;6.25;;;13.80;99.90;;;;;;5117853;27;20052;-74
2023/07/27 00:20:11;;;;;;;9.65;6.05;;;13.80;99.90;;;;;;5118396;28;20043;-75
2023/07/27 00:22:37;;;;;;;8.32;5.60;;;13.70;99.90;;;;;;5118875;27;20078;-75
2023/07/27 00:25:04;;;;;;;11.35;5.65;;;13.80;99.90;;;;;;5115730;27;20028;-75
2023/07/27 00:27:30;;;;;;;8.65;5.70;;;13.70;99.90;;;;;;5115405;27;20040;-74
2023/07/27 00:29:55;;;;;;;12.38;5.22;;;13.70;99.90;;;;;;5110074;27;20031;-75
2023/07/27 00:32:21;;;;;;;14.38;5.82;;;13.70;99.90;;;;;;5118002;28;20051;-75
2023/07/27 00:34:47;;;;;;;11.55;5.95;;;13.80;99.90;;;;;;5115704;27;20530;-73
2023/07/27 00:37:13;;;;;;;9.38;5.97;;;13.70;99.90;;;;;;5113519;28;20039;-75
2023/07/27 00:39:38;;;;;;;9.55;5.60;;;13.70;99.90;;;;;;5112258;28;20110;-74
2023/07/27 00:42:04;;;;;;;11.55;5.32;;;13.70;99.90;;;;;;5113905;28;20040;-75
2023/07/27 00:44:30;;;;;;;12.63;6.07;;;13.70;99.90;;;;;;5111913;28;20085;-74
2023/07/27 00:46:56;;;;;;;11.43;5.43;;;13.70;99.90;;;;;;5107927;28;20048;-75
2023/07/27 00:49:22;;;;;;;10.43;5.70;;;13.70;99.90;;;;;;5109855;28;20028;-73
2023/07/27 00:51:48;;;;;;;12.38;6.53;;;13.70;99.90;;;;;;5110961;28;20059;-75
2023/07/27 00:54:14;;;;;;;10.90;5.75;;;13.70;99.90;;;;;;5107645;28;20044;-73
2023/07/27 00:56:40;;;;;;;9.90;5.55;;;13.80;99.90;;;;;;5091249;28;20052;-74
2023/07/27 00:59:06;;;;;;;9.23;5.70;;;13.70;99.90;;;;;;5111934;28;20489;-75
2023/07/27 01:01:32;;;;;;;16.15;5.30;;;13.70;99.90;;;;;;5105816;27;20131;-75
2023/07/27 01:03:59;;;;;;;10.10;5.25;;;13.80;99.90;;;;;;5111699;28;20474;-75
2023/07/27 01:06:25;;;;;;;10.98;5.65;;;13.80;99.90;;;;;;5111255;28;20043;-75
2023/07/27 01:08:52;;;;;;;7.85;5.15;;;13.80;99.90;;;;;;5106498;28;20043;-74
2023/07/27 01:11:28;;;;;;;10.15;5.43;;;13.80;99.90;;;;;;5104980;28;20042;-76
2023/07/27 01:14:13;;;;;;;8.13;5.35;;;13.80;99.90;;;;;;5109259;28;20069;-74
2023/07/27 01:17:34;;;;;;;8.82;5.53;;;13.80;99.90;;;;;;5114289;28;20490;-74
2023/07/27 01:20:21;;;;;;;8.05;5.35;;;13.80;99.90;;;;;;5082670;28;20047;-73
2023/07/27 01:23:12;;;;;;;10.55;5.70;;;13.80;99.90;;;;;;5108128;28;20046;-75
2023/07/27 01:26:00;;;;;;;11.48;5.63;;;13.80;99.90;;;;;;5106924;28;20048;-74
2023/07/27 01:28:40;;;;;;;10.50;5.63;;;13.80;99.90;;;;;;5082441;28;20052;-75
2023/07/27 01:31:08;;;;;;;10.70;5.05;;;13.80;99.90;;;;;;5109720;28;20054;-74
2023/07/27 01:33:38;;;;;;;8.77;5.45;;;13.80;99.90;;;;;;5105958;28;20055;-73
2023/07/27 01:36:23;;;;;;;9.93;5.68;;;13.80;99.90;;;;;;5100628;28;20145;-74
2023/07/27 01:38:51;;;;;;;8.70;5.05;;;13.80;99.90;;;;;;5114797;28;20039;-75
2023/07/27 01:41:18;;;;;;;7.07;4.80;;;13.80;99.90;;;;;;5111549;28;20051;-74
2023/07/27 01:43:45;;;;;;;9.70;4.90;;;13.80;99.90;;;;;;5107481;28;20374;-75
2023/07/27 01:46:12;;;;;;;10.77;6.45;;;13.80;99.90;;;;;;5110108;28;20090;-75
2023/07/27 01:48:40;;;;;;;10.00;5.38;;;13.80;99.90;;;;;;5112750;28;20118;-74
2023/07/27 01:51:08;;;;;;;9.02;5.40;;;13.80;99.90;;;;;;5107192;28;20568;-75
2023/07/27 01:53:35;;;;;;;8.43;5.22;;;13.80;99.90;;;;;;5110956;28;20051;-73
2023/07/27 01:56:04;;;;;;;7.95;5.13;;;13.80;99.90;;;;;;5103258;27;20072;-75
2023/07/27 01:58:30;;;;;;;9.23;5.00;;;13.80;99.90;;;;;;5104129;28;20040;-73
2023/07/27 02:00:57;;;;;;;8.20;5.10;;;13.70;99.90;;;;;;5108469;28;20032;-76
2023/07/27 02:03:23;;;;;;;10.43;5.32;;;13.80;99.90;;;;;;5102669;28;20043;-75
2023/07/27 02:05:49;;;;;;;8.73;5.43;;;13.80;99.90;;;;;;5086539;28;20047;-75
2023/07/27 02:08:15;;;;;;;13.02;6.25;;;13.80;99.90;;;;;;5114096;28;20044;-75
2023/07/27 02:10:41;;;;;;;8.27;5.00;;;13.80;99.90;;;;;;5109436;27;20036;-75
2023/07/27 02:13:19;;;;;;;8.52;5.13;;;13.80;99.90;;;;;;5110630;28;20059;-73
2023/07/27 02:15:50;;;;;;;8.40;5.25;;;13.90;99.90;;;;;;5106774;28;20044;-75
2023/07/27 02:18:21;;;;;;;9.40;4.97;;;13.70;99.90;;;;;;5112682;28;20051;-74
2023/07/27 02:20:49;;;;;;;9.75;5.60;;;13.80;99.90;;;;;;5105015;28;20039;-74
2023/07/27 02:23:15;;;;;;;8.52;5.10;;;13.80;99.90;;;;;;5110686;28;20112;-74
2023/07/27 02:25:41;;;;;;;8.15;5.43;;;13.80;99.90;;;;;;5107323;28;20134;-75
2023/07/27 02:28:10;;;;;;;8.77;5.28;;;13.80;99.90;;;;;;5105193;28;20541;-75
2023/07/27 02:30:36;;;;;;;8.10;4.97;;;13.80;99.90;;;;;;5109915;28;20032;-74
2023/07/27 02:33:03;;;;;;;8.40;4.95;;;13.80;99.90;;;;;;5111690;28;20047;-76
2023/07/27 02:35:28;;;;;;;7.35;4.80;;;13.80;99.90;;;;;;5099293;28;20050;-76
2023/07/27 02:37:54;;;;;;;7.55;5.20;;;13.80;99.90;;;;;;5107757;28;20385;-75
2023/07/27 02:40:20;;;;;;;10.35;5.38;;;13.90;99.90;;;;;;5108943;28;20120;-75
2023/07/27 02:42:45;;;;;;;8.27;5.20;;;13.80;99.90;;;;;;5107993;28;20044;-76
2023/07/27 02:45:11;;;;;;;9.40;4.90;;;13.90;99.90;;;;;;5098357;28;20071;-74
2023/07/27 02:47:40;;;;;;;8.55;5.15;;;13.90;99.90;;;;;;5108730;28;20054;-77
2023/07/27 02:50:06;;;;;;;7.53;5.18;;;13.90;99.90;;;;;;5109885;28;20042;-75
2023/07/27 02:52:32;;;;;;;8.15;5.03;;;13.90;99.90;;;;;;5108688;28;20129;-75
2023/07/27 02:54:57;;;;;;;8.75;5.10;;;13.90;99.90;;;;;;5108278;28;20099;-75
2023/07/27 02:57:23;;;;;;;9.82;5.15;;;13.90;99.90;;;;;;5110533;28;20038;-75
2023/07/27 02:59:49;;;;;;;7.90;4.50;;;14.00;99.90;;;;;;5100949;28;20073;-76
2023/07/27 03:02:15;;;;;;;8.20;5.30;;;13.90;99.90;;;;;;5099629;28;20401;-75
2023/07/27 03:04:41;;;;;;;8.55;5.20;;;13.90;99.90;;;;;;5107171;28;20463;-75
2023/07/27 03:07:06;;;;;;;8.10;5.00;;;13.90;99.90;;;;;;5106496;28;20071;-75
2023/07/27 03:09:33;;;;;;;9.88;4.90;;;13.90;99.90;;;;;;5109101;28;20079;-75
2023/07/27 03:11:58;;;;;;;7.82;4.85;;;13.90;99.90;;;;;;5105180;28;20440;-75
2023/07/27 03:14:24;;;;;;;8.85;5.00;;;13.90;99.90;;;;;;5111377;28;20066;-75
2023/07/27 03:16:50;;;;;;;9.48;5.00;;;13.90;99.90;;;;;;5107822;28;20110;-75
2023/07/27 03:19:15;;;;;;;10.23;5.80;;;13.90;99.90;;;;;;5107119;28;20044;-75
2023/07/27 03:21:41;;;;;;;8.75;5.20;;;13.90;99.90;;;;;;5106560;28;20109;-75
2023/07/27 03:24:07;;;;;;;7.28;4.97;;;13.90;99.90;;;;;;5092689;28;20288;-75
2023/07/27 03:26:36;;;;;;;8.38;5.22;;;14.00;99.90;;;;;;5109311;28;20040;-75
2023/07/27 03:29:02;;;;;;;9.43;5.20;;;13.90;99.90;;;;;;5092371;28;20501;-75
2023/07/27 03:31:28;;;;;;;11.50;5.72;;;13.90;99.90;;;;;;5105720;28;20123;-76
2023/07/27 03:33:54;;;;;;;9.77;5.07;;;14.00;99.90;;;;;;5111268;28;20483;-76
2023/07/27 03:36:20;;;;;;;10.07;5.07;;;14.00;99.90;;;;;;5103152;28;20044;-76
2023/07/27 03:38:46;;;;;;;9.45;5.20;;;14.00;99.90;;;;;;5108257;28;20043;-75
2023/07/27 03:41:13;;;;;;;10.10;5.10;;;13.90;99.90;;;;;;5106758;28;20111;-75
2023/07/27 03:43:39;;;;;;;7.60;5.25;;;14.00;99.90;;;;;;5112266;28;20126;-75
2023/07/27 03:46:04;;;;;;;8.77;5.38;;;14.00;99.90;;;;;;5106451;28;20458;-74
2023/07/27 03:48:30;;;;;;;9.45;5.30;;;14.00;99.90;;;;;;5105465;28;20039;-75
2023/07/27 03:50:59;;;;;;;9.43;5.57;;;14.10;99.90;;;;;;5102152;28;20559;-75
2023/07/27 03:53:26;;;;;;;9.48;5.53;;;14.10;99.90;;;;;;5107655;28;20447;-74
2023/07/27 03:55:51;;;;;;;10.75;5.68;;;14.10;99.90;;;;;;5102927;28;20032;-75
2023/07/27 03:58:17;;;;;;;8.77;5.32;;;14.10;99.90;;;;;;5111410;28;20081;-75
2023/07/27 04:00:42;;;;;;;11.55;5.55;;;14.20;99.90;;;;;;5110215;28;20044;-76
2023/07/27 04:03:08;;;;;;;9.77;5.63;;;14.20;99.90;;;;;;5109798;28;20083;-75
2023/07/27 04:05:34;;;;;;;9.98;5.75;;;14.80;99.90;;;;;;5109829;28;20039;-74
2023/07/27 04:07:59;;;;;;;8.80;5.47;;;14.20;99.90;;;;;;5109259;28;20058;-75
2023/07/27 04:10:25;;;;;;;9.48;5.63;;;14.20;99.90;;;;;;5108309;28;20105;-76
2023/07/27 04:12:51;;;;;;;11.95;6.30;;;14.20;99.90;;;;;;5115212;28;20039;-73
2023/07/27 04:15:17;;;;;;;9.05;6.22;;;14.20;99.90;;;;;;5112100;28;20425;-75
2023/07/27 04:17:43;;;;;;;10.02;5.80;;;14.20;99.90;;;;;;5115191;28;20044;-75
2023/07/27 04:20:09;;;;;;;8.73;5.57;;;14.20;99.90;;;;;;5115709;28;20047;-75
2023/07/27 04:22:35;;;;;;;9.55;6.07;;;14.20;99.90;;;;;;5113325;28;20477;-74
2023/07/27 04:25:01;;;;;;;13.85;6.00;;;14.20;99.90;;;;;;5114214;28;20051;-75
2023/07/27 04:27:27;;;;;;;10.88;6.55;;;14.20;99.90;;;;;;5114350;28;20531;-75
2023/07/27 04:29:52;;;;;;;10.27;6.47;;;14.10;99.90;;;;;;5116148;28;20036;-74
2023/07/27 04:32:18;;;;;;;12.40;6.75;;;14.20;99.90;;;;;;5109370;28;20035;-73
2023/07/27 04:34:44;;;;;;;10.88;6.38;;;14.10;99.90;;;;;;5113941;28;20039;-73
2023/07/27 04:37:09;;;;;;;11.60;6.85;;;14.10;99.90;;;;;;5112033;28;20497;-75
2023/07/27 04:39:35;;;;;;;12.38;6.72;;;14.20;99.90;;;;;;5115630;28;20438;-75
2023/07/27 04:42:01;;;;;;;9.93;6.32;;;14.20;99.90;;;;;;5114151;28;20544;-74
2023/07/27 04:44:26;;;;;;;11.50;6.85;;;14.10;99.90;;;;;;5111294;28;20040;-75
2023/07/27 04:46:53;;;;;;;11.63;7.47;;;14.10;99.90;;;;;;5113791;28;20478;-74
2023/07/27 04:49:19;;;;;;;13.07;8.00;;;14.10;99.90;;;;;;5109893;28;20043;-73
2023/07/27 04:51:44;;;;;;;12.63;8.27;;;14.20;99.90;;;;;;5112321;28;20042;-75
2023/07/27 04:54:10;;;;;;;15.95;8.60;;;14.20;99.90;;;;;;5112763;28;20100;-75
2023/07/27 04:56:36;;;;;;;14.13;7.95;;;14.10;99.90;;;;;;5110659;28;20039;-76
2023/07/27 04:59:01;;;;;;;16.27;8.30;;;14.20;99.90;;;;;;5112428;28;20513;-76
2023/07/27 05:01:27;;;;;;;16.67;8.98;;;14.20;99.90;;;;;;5109331;28;20035;-76
2023/07/27 05:03:52;;;;;;;13.60;8.55;;;14.20;99.90;;;;;;5108892;28;20072;-74
2023/07/27 05:06:18;;;;;;;13.52;8.20;;;14.20;99.90;;;;;;5110326;28;20118;-74
2023/07/27 05:08:44;;;;;;;13.57;8.27;;;14.20;99.90;;;;;;5113364;28;20153;-76
2023/07/27 05:11:10;;;;;;;13.85;8.30;;;14.20;99.90;;;;;;5112574;28;20032;-74
2023/07/27 05:13:36;;;;;;;16.65;9.38;;;14.20;99.90;;;;;;5112873;28;20050;-75
2023/07/27 05:16:02;;;;;;;12.95;7.35;;;14.20;99.90;;;;;;5106072;28;20040;-75
2023/07/27 05:18:28;;;;;;;11.82;7.45;;;14.20;99.90;;;;;;5091073;28;20055;-75
2023/07/27 05:20:55;;;;;;;11.52;7.40;;;14.20;99.90;;;;;;5100046;28;20128;-75
2023/07/27 05:23:20;;;;;;;13.27;7.53;;;14.20;99.90;;;;;;5104134;27;20047;-75
2023/07/27 05:25:47;;;;;;;15.52;8.23;;;14.20;99.90;;;;;;5113108;28;20428;-75
2023/07/27 05:28:13;;;;;;;10.98;8.20;;;14.20;99.90;;;;;;5113165;28;20496;-75
2023/07/27 05:30:39;;;;;;;11.13;7.78;;;14.20;99.90;;;;;;5112586;28;20475;-76
2023/07/27 05:33:05;;;;;;;12.77;8.07;;;14.20;99.90;;;;;;5113908;28;20126;-75
2023/07/27 05:35:30;;;;;;;14.20;8.20;;;14.20;99.90;;;;;;5114194;28;20393;-75
2023/07/27 05:37:56;;;;;;;14.43;7.75;;;14.30;99.90;;;;;;5093449;28;20040;-76
2023/07/27 05:40:22;;;;;;;11.32;7.70;;;14.30;99.90;;;;;;5109117;28;20035;-76
2023/07/27 05:42:47;;;;;;;12.55;7.90;;;14.30;99.90;;;;;;5108737;28;20039;-75
2023/07/27 05:45:13;;;;;;;13.68;7.95;;;14.30;99.90;;;;;;5108207;28;20051;-75
2023/07/27 05:47:38;;;;;;;10.35;7.13;;;14.30;99.90;;;;;;5095141;28;20135;-76
2023/07/27 05:50:06;;;;;;;11.35;6.82;;;14.30;99.90;;;;;;5107092;28;20047;-76
2023/07/27 05:52:32;;;;;;;13.10;7.03;;;14.30;99.90;;;;;;5111089;28;20031;-76
2023/07/27 05:54:58;;;;;;;11.68;7.75;;;14.30;99.90;;;;;;5109651;28;20109;-75
2023/07/27 05:57:24;;;;;;;10.02;6.60;;;14.30;99.90;;;;;;5111799;28;20162;-75
2023/07/27 05:59:50;;;;;;;9.98;6.75;;;14.30;99.90;;;;;;5110174;27;20036;-76
2023/07/27 06:02:16;;;;;;;12.05;7.13;;;14.20;99.90;;;;;;5115170;27;20085;-75
2023/07/27 06:04:42;;;;;;;11.48;6.90;;;14.30;99.90;;;;;;5110902;28;20470;-75
2023/07/27 06:07:08;;;;;;;11.65;6.88;;;14.20;99.90;;;;;;5110951;28;20071;-75
2023/07/27 06:09:36;;;;;;;12.45;7.75;;;14.20;99.90;;;;;;5109061;28;20074;-76
2023/07/27 06:12:11;;;;;;;13.82;7.80;;;14.20;99.90;;;;;;5114528;28;20043;-75
2023/07/27 06:14:40;;;;;;;11.15;7.22;;;14.20;99.90;;;;;;5109889;28;20051;-76
2023/07/27 06:17:06;;;;;;;12.80;7.68;;;14.20;99.90;;;;;;5107113;28;20063;-75
2023/07/27 06:19:33;;;;;;;15.27;7.43;;;14.20;99.90;;;;;;5115578;28;20055;-76
2023/07/27 06:21:58;;;;;;;13.35;7.60;;;14.20;99.90;;;;;;5112410;28;20374;-76
2023/07/27 06:24:24;;;;;;;14.05;7.47;;;14.20;99.90;;;;;;5110656;28;20164;-75
2023/07/27 06:26:50;;;;;;;14.50;8.00;;;14.30;99.90;;;;;;5107754;28;20063;-76
2023/07/27 06:29:16;;;;;;;13.52;7.55;;;14.30;99.90;;;;;;5112226;28;20119;-75
2023/07/27 06:31:41;;;;;;;10.43;6.90;;;14.40;99.90;;;;;;5115989;28;20036;-76
2023/07/27 06:34:07;;;;;;;11.23;7.63;;;14.50;99.90;;;;;;5113955;28;20079;-76
2023/07/27 06:36:33;;;;;;;10.48;7.03;;;14.60;99.90;;;;;;5113224;28;20032;-75
2023/07/27 06:38:59;;;;;;;13.45;6.50;;;14.70;99.90;;;;;;5107157;28;20510;-74
2023/07/27 06:41:25;;;;;;;11.10;7.05;;;14.80;99.90;;;;;;5112505;28;20046;-76
2023/07/27 06:43:53;;;;;;;10.52;6.55;;;15.00;99.90;;;;;;5112018;28;20544;-76
2023/07/27 06:46:20;;;;;;;8.85;6.20;;;15.00;99.90;;;;;;5110922;28;20039;-75
2023/07/27 06:48:46;;;;;;;9.98;6.07;;;15.10;99.90;;;;;;5107741;28;20057;-75
2023/07/27 06:51:13;;;;;;;10.50;6.28;;;15.20;99.90;;;;;;5094330;28;20064;-76
2023/07/27 06:53:38;;;;;;;9.90;6.25;;;15.30;99.90;;;;;;5112594;28;20089;-76
2023/07/27 06:56:04;;;;;;;9.55;6.57;;;15.30;99.90;;;;;;5110847;28;20044;-74
2023/07/27 06:58:30;;;;;;;8.13;5.82;;;15.40;99.90;;;;;;5109890;28;20035;-76
2023/07/27 07:00:56;;;;;;;11.52;5.80;;;15.50;99.90;;;;;;5111315;28;20078;-75
2023/07/27 07:03:22;;;;;;;8.68;5.80;;;15.50;99.90;;;;;;5114937;28;20079;-75
2023/07/27 07:05:48;;;;;;;8.63;5.53;;;15.60;99.90;;;;;;5116385;28;20161;-74
2023/07/27 07:08:13;;;;;;;8.77;5.60;;;15.60;99.90;;;;;;5098110;28;20075;-74
2023/07/27 07:10:39;;;;;;;7.75;5.03;;;15.70;99.90;;;;;;5102414;28;20119;-75
2023/07/27 07:13:05;;;;;;;7.68;5.10;;;15.70;99.90;;;;;;5105119;28;20054;-74
2023/07/27 07:15:30;;;;;;;7.57;4.93;;;15.70;99.90;;;;;;5111068;28;20032;-75
2023/07/27 07:17:56;;;;;;;7.60;4.93;;;15.70;99.90;;;;;;5109854;28;20632;-75
2023/07/27 07:20:22;;;;;;;6.68;4.78;;;15.60;99.90;;;;;;5112815;28;20173;-75
2023/07/27 07:22:47;;;;;;;9.50;5.45;;;15.60;99.90;;;;;;5112853;28;20169;-75
2023/07/27 07:25:13;;;;;;;7.05;4.93;;;15.60;99.90;;;;;;5100861;28;20107;-73
2023/07/27 07:27:39;;;;;;;6.80;5.15;;;15.60;99.90;;;;;;5101845;28;20434;-74
2023/07/27 07:30:05;;;;;;;6.47;5.05;;;15.60;99.90;;;;;;5103638;28;20035;-75
2023/07/27 07:32:34;;;;;;;7.72;5.05;;;15.60;99.90;;;;;;5112474;28;20036;-75
2023/07/27 07:35:00;;;;;;;7.70;5.20;;;15.60;99.90;;;;;;5106393;28;20039;-75
2023/07/27 07:37:26;;;;;;;5.90;4.30;;;15.60;99.90;;;;;;5102398;28;20482;-75
2023/07/27 07:39:53;;;;;;;6.53;4.82;;;15.60;99.90;;;;;;5106946;28;20035;-75
2023/07/27 07:42:19;;;;;;;6.82;4.72;;;15.60;99.90;;;;;;5099903;28;20045;-75
2023/07/27 07:44:46;;;;;;;7.57;5.00;;;15.60;99.90;;;;;;5111276;28;20067;-75
2023/07/27 07:47:12;;;;;;;8.30;4.95;;;15.60;99.90;;;;;;5112106;28;20044;-75
2023/07/27 07:49:37;;;;;;;7.90;4.70;;;15.60;99.90;;;;;;5109307;28;20113;-76
2023/07/27 07:52:04;;;;;;;6.97;5.00;;;15.60;99.90;;;;;;5112643;28;20032;-75
2023/07/27 07:54:30;;;;;;;7.88;4.43;;;15.50;99.90;;;;;;5116612;28;20039;-75
2023/07/27 07:56:56;;;;;;;8.32;4.78;;;15.50;99.90;;;;;;5111675;28;20067;-75
2023/07/27 07:59:22;;;;;;;6.60;4.45;;;15.60;99.90;;;;;;5112405;28;20063;-74
2023/07/27 08:01:49;;;;;;;9.10;5.53;;;15.60;99.90;;;;;;5119182;28;20042;-75
2023/07/27 08:04:16;;;;;;;5.93;4.38;;;15.60;99.90;;;;;;5118255;28;20046;-75
2023/07/27 08:06:42;;;;;;;6.47;4.30;;;15.60;99.90;;;;;;5118580;28;20039;-73
2023/07/27 08:09:08;;;;;;;7.85;4.43;;;15.70;99.90;;;;;;5111207;28;20101;-75
2023/07/27 08:11:34;;;;;;;6.18;4.20;;;15.70;99.90;;;;;;5117888;28;20497;-74
2023/07/27 08:14:02;;;;;;;6.32;3.80;;;15.80;99.90;;;;;;5109974;28;20039;-75
2023/07/27 08:16:29;;;;;;;5.57;3.83;;;15.80;99.90;;;;;;5117756;28;20115;-75
2023/07/27 08:18:57;;;;;;;5.10;3.85;;;15.90;99.90;;;;;;5118933;27;20061;-74
2023/07/27 08:21:23;;;;;;;8.15;4.93;;;16.00;99.90;;;;;;5109886;28;20501;-75
2023/07/27 08:23:50;;;;;;;6.57;4.85;;;16.00;99.90;;;;;;5111295;28;20040;-76
2023/07/27 08:26:16;;;;;;;5.10;3.65;;;15.80;99.90;;;;;;5116885;28;20044;-75
2023/07/27 08:28:41;;;;;;;6.18;3.55;;;16.10;99.90;;;;;;5116528;28;20085;-75
2023/07/27 08:31:07;;;;;;;4.70;3.10;;;16.10;99.90;;;;;;5115982;28;20206;-75
2023/07/27 08:33:33;;;;;;;4.85;3.00;;;16.20;99.90;;;;;;5111045;28;20123;-75
2023/07/27 08:36:02;;;;;;;4.47;3.10;;;16.20;99.90;;;;;;5115830;28;20071;-76
2023/07/27 08:38:28;;;;;;;5.40;3.58;;;16.30;99.90;;;;;;5113908;28;20028;-75
2023/07/27 08:40:57;;;;;;;4.50;3.17;;;16.30;99.90;;;;;;5112044;28;20512;-74
2023/07/27 08:43:24;;;;;;;4.03;2.95;;;16.30;99.90;;;;;;5115440;28;20040;-75
2023/07/27 08:45:50;;;;;;;3.50;2.65;;;16.30;99.90;;;;;;5116856;28;20036;-74
2023/07/27 08:48:16;;;;;;;3.60;2.88;;;16.30;99.90;;;;;;5112397;28;20080;-75
2023/07/27 08:50:47;;;;;;;5.75;2.60;;;16.30;99.90;;;;;;5118238;28;20043;-75
2023/07/27 08:53:13;;;;;;;4.18;3.00;;;16.30;99.90;;;;;;5113572;28;20409;-74
2023/07/27 08:55:42;;;;;;;4.65;3.03;;;16.40;99.90;;;;;;5117796;28;20081;-75
2023/07/27 08:58:08;;;;;;;4.22;2.60;;;16.30;99.90;;;;;;5110311;28;20397;-74
2023/07/27 09:00:34;;;;;;;3.20;2.38;;;16.30;99.90;;;;;;5111329;28;20043;-73
2023/07/27 09:03:00;;;;;;;3.55;2.78;;;16.40;99.90;;;;;;5111061;28;20485;-77
2023/07/27 09:05:40;;;;;;;4.32;2.78;;;16.40;99.90;;;;;;5111243;28;20043;-77
2023/07/27 09:08:09;;;;;;;4.25;3.05;;;16.40;99.90;;;;;;5109633;28;20189;-77
2023/07/27 09:10:45;;;;;;;4.32;2.70;;;16.40;99.90;;;;;;5108878;28;20456;-77
2023/07/27 09:13:11;;;;;;;3.67;3.00;;;16.40;99.90;;;;;;5110305;28;20067;-77
2023/07/27 09:15:43;;;;;;;3.40;2.60;;;16.40;99.90;;;;;;5110482;28;20040;-77
2023/07/27 09:18:11;;;;;;;4.28;2.60;;;16.50;99.90;;;;;;5117940;28;20047;-76
2023/07/27 09:20:38;;;;;;;;;;;16.60;99.90;;;;;;5112012;28;20585;-76
2023/07/27 09:23:04;;;;;;;3.65;2.67;;;16.70;99.90;;;;;;5114677;28;19952;-77
2023/07/27 09:25:30;;;;;;;3.10;2.30;;;16.80;99.90;;;;;;5110152;28;20089;-77
2023/07/27 09:27:57;;;;;;;4.05;2.38;;;16.90;99.90;;;;;;5115125;28;20423;-77
2023/07/27 09:30:24;;;;;;;4.80;2.30;;;17.00;99.90;;;;;;5115489;28;20046;-76
2023/07/27 09:32:51;;;;;;;3.97;2.28;;;17.00;99.90;;;;;;5118552;28;20070;-76
2023/07/27 09:35:19;;;;;;;3.47;2.20;;;17.00;99.90;;;;;;5104468;28;20044;-76
2023/07/27 09:37:54;;;;;;;3.75;2.28;;;17.00;99.90;;;;;;5113564;28;20117;-76
2023/07/27 09:40:23;;;;;;;4.63;2.42;;;17.00;99.90;;;;;;5114087;28;20039;-76
2023/07/27 09:42:49;;;;;;;6.50;3.28;;;17.00;99.90;;;;;;5116462;28;20048;-75
2023/07/27 09:45:15;;;;;;;3.47;2.40;;;17.00;99.90;;;;;;5107521;28;20047;-77
2023/07/27 09:47:41;;;;;;;4.40;2.20;;;17.00;99.90;;;;;;5115275;28;20040;-75
2023/07/27 09:50:08;;;;;;;3.25;2.00;;;17.10;99.90;;;;;;5114771;28;20047;-76
2023/07/27 09:52:36;;;;;;;4.60;1.52;;;17.10;99.90;;;;;;5104462;28;20177;-77
2023/07/27 09:55:03;;;;;;;2.75;1.98;;;17.00;99.90;;;;;;5108018;28;20063;-75
2023/07/27 09:57:29;;;;;;;2.65;1.85;;;17.00;99.90;;;;;;5108489;28;20031;-76
2023/07/27 09:59:55;;;;;;;2.50;1.92;;;17.00;99.90;;;;;;5111495;28;20044;-77
2023/07/27 10:02:22;;;;;;;3.63;2.33;;;16.90;99.90;;;;;;5112257;28;20044;-77
2023/07/27 10:04:51;;;;;;;3.15;2.03;;;17.00;99.90;;;;;;5105532;28;20404;-77
2023/07/27 10:07:19;;;;;;;5.25;2.00;;;17.00;99.90;;;;;;5101617;28;20481;-78
2023/07/27 10:09:48;;;;;;;2.47;1.70;;;17.20;99.90;;;;;;5104551;28;20078;-76
2023/07/27 10:12:27;;;;;;;2.72;2.10;;;16.90;99.90;;;;;;5109423;28;20078;-77
2023/07/27 10:15:23;;;;;;;2.60;2.03;;;17.10;99.90;;;;;;5112186;28;20031;-77
2023/07/27 10:17:51;;;;;;;3.45;1.95;;;17.00;99.90;;;;;;5111508;28;20096;-76
2023/07/27 10:20:28;;;;;;;2.70;2.13;;;17.30;99.90;;;;;;5111988;28;20060;-77
2023/07/27 10:23:18;;;;;;;5.50;2.20;;;17.00;99.90;;;;;;5113749;28;20381;-77
2023/07/27 10:25:56;;;;;;;2.88;2.20;;;17.10;99.90;;;;;;5112957;28;20082;-76
2023/07/27 10:28:42;;;;;;;3.83;2.40;;;17.20;99.90;;;;;;5113077;28;20050;-76
2023/07/27 10:31:13;;;;;;;3.25;2.20;;;17.10;99.90;;;;;;5115831;28;20039;-76
2023/07/27 10:33:52;;;;;;;3.35;2.40;;;17.10;99.90;;;;;;5110233;28;20043;-76
2023/07/27 10:36:20;;;;;;;3.78;2.28;;;17.10;99.90;;;;;;5102023;28;20040;-76
2023/07/27 10:38:53;;;;;;;3.05;2.15;;;17.20;99.90;;;;;;5109836;28;20055;-77
2023/07/27 10:41:25;;;;;;;3.00;2.10;;;17.10;99.90;;;;;;5117308;28;20542;-76
2023/07/27 10:44:09;;;;;;;3.22;2.20;;;17.10;99.90;;;;;;5115750;28;20039;-76
2023/07/27 10:46:38;;;;;;;2.53;2.03;;;17.20;99.90;;;;;;5111138;28;20119;-77
2023/07/27 10:49:12;;;;;;;9.90;7.40;;;17.30;99.90;;;;;;5105770;28;20040;-77
2023/07/27 10:51:38;;;;;;;4.00;3.47;;;17.30;99.90;;;;;;5115227;28;20044;-77
2023/07/27 10:54:04;;;;;;;4.57;3.50;;;17.30;99.90;;;;;;5118191;28;20047;-77
2023/07/27 10:56:34;;;;;;;4.60;3.80;;;17.30;99.90;;;;;;5111944;28;20032;-77
2023/07/27 10:59:00;;;;;;;6.45;5.68;;;17.20;99.90;;;;;;5119005;27;20072;-77
2023/07/27 11:01:32;;;;;;;3.72;3.10;;;17.20;99.90;;;;;;5118341;28;20520;-78
2023/07/27 11:03:58;;;;;;;3.15;2.70;;;17.20;99.90;;;;;;5116995;28;20051;-76
2023/07/27 11:06:27;;;;;;;3.90;2.72;;;17.10;99.90;;;;;;5110778;28;20043;-77
2023/07/27 11:08:54;;;;;;;3.33;2.70;;;17.10;99.90;;;;;;5113686;28;20130;-77
2023/07/27 11:11:23;;;;;;;4.03;2.67;;;17.10;99.90;;;;;;5098596;28;20047;-77
2023/07/27 11:13:50;;;;;;;3.40;2.63;;;17.10;99.90;;;;;;5112401;28;20097;-76
2023/07/27 11:16:17;;;;;;;3.10;2.75;;;17.10;99.90;;;;;;5113193;28;20047;-77
2023/07/27 11:18:43;;;;;;;3.58;2.72;;;17.10;99.90;;;;;;5112580;28;20063;-77
2023/07/27 11:21:10;;;;;;;3.88;3.10;;;17.10;99.90;;;;;;5109862;27;20126;-77
2023/07/27 11:23:51;;;;;;;3.67;3.15;;;17.10;99.90;;;;;;5109882;28;20538;-78
2023/07/27 11:26:17;;;;;;;2.72;2.35;;;17.00;99.90;;;;;;5115157;28;20105;-76
2023/07/27 11:28:43;;;;;;;4.82;3.63;;;17.00;99.90;;;;;;5113495;28;20047;-78
2023/07/27 11:31:09;;;;;;;4.97;3.10;;;16.70;99.90;;;;;;5115652;28;20042;-77
2023/07/27 11:33:36;;;;;;;7.45;3.63;;;16.90;99.90;;;;;;5115636;28;20058;-76
2023/07/27 11:36:04;;;;;;;5.15;3.65;;;16.90;99.90;;;;;;5108910;28;20105;-76
2023/07/27 11:38:31;;;;;;;6.18;4.00;;;16.90;99.90;;;;;;5111910;28;20116;-76
2023/07/27 11:40:57;;;;;;;5.82;4.25;;;17.00;99.90;;;;;;5112322;28;20528;-76
2023/07/27 11:43:27;;;;;;;5.50;4.03;;;17.00;99.90;;;;;;5096654;28;20494;-76
2023/07/27 11:46:00;;;;;;;8.60;4.63;;;17.00;99.90;;;;;;5106060;28;20038;-76
2023/07/27 11:48:27;;;;;;;7.30;4.68;;;17.10;99.90;;;;;;5108592;28;20393;-76
2023/07/27 11:51:00;;;;;;;5.85;4.80;;;17.10;99.90;;;;;;5108017;28;20040;-78
2023/07/27 11:53:28;;;;;;;8.57;5.28;;;17.20;99.90;;;;;;5103091;28;20048;-78
2023/07/27 11:55:54;;;;;;;5.63;4.53;;;17.20;99.90;;;;;;5110120;28;20039;-78
2023/07/27 11:58:29;;;;;;;6.20;5.03;;;17.20;99.90;;;;;;5099023;28;20054;-78
2023/07/27 12:00:55;;;;;;;6.60;5.10;;;17.30;99.90;;;;;;5113744;28;20487;-77
2023/07/27 12:03:23;;;;;;;7.00;4.80;;;17.20;99.90;;;;;;5110154;28;20040;-77
2023/07/27 12:05:53;;;;;;;7.03;5.53;;;17.30;99.90;;;;;;5107920;28;20118;-78
2023/07/27 12:08:20;;;;;;;6.90;5.60;;;17.20;99.90;;;;;;5114193;28;20075;-80
2023/07/27 12:10:52;;;;;;;6.82;5.90;;;17.20;99.90;;;;;;5099535;28;20119;-78
2023/07/27 12:13:22;;;;;;;6.22;5.57;;;17.20;99.90;;;;;;5103266;28;20145;-78
2023/07/27 12:15:59;;;;;;;11.57;6.82;;;17.20;99.90;;;;;;5102692;28;20153;-78
2023/07/27 12:18:26;;;;;;;9.10;7.00;;;17.20;99.90;;;;;;5107403;28;20063;-78
2023/07/27 12:20:53;;;;;;;7.60;6.40;;;17.20;99.90;;;;;;5110348;28;20051;-77
2023/07/27 12:23:19;;;;;;;9.90;7.15;;;17.30;99.90;;;;;;5108578;28;20312;-76
2023/07/27 12:25:44;;;;;;;7.90;6.40;;;17.30;99.90;;;;;;5099059;28;20095;-76
2023/07/27 12:28:10;;;;;;;7.75;6.07;;;17.30;99.90;;;;;;5114024;28;20035;-76
2023/07/27 12:30:36;;;;;;;7.25;6.13;;;17.40;99.90;;;;;;5103340;28;20062;-77
2023/07/27 12:33:01;;;;;;;6.80;5.68;;;17.50;99.90;;;;;;5106043;28;20111;-77
2023/07/27 12:35:28;;;;;;;6.47;5.60;;;17.60;99.90;;;;;;5110586;28;20453;-75
2023/07/27 12:37:55;;;;;;;5.07;4.45;;;17.70;99.90;;;;;;5114589;28;20039;-74
2023/07/27 12:40:21;;;;;;;5.53;4.20;;;17.80;99.90;;;;;;5116515;28;20044;-74
2023/07/27 12:42:47;;;;;;;6.28;5.10;;;17.80;99.90;;;;;;5112519;28;20189;-75
2023/07/27 12:45:12;;;;;;;5.85;5.13;;;17.80;99.90;;;;;;5117714;28;20505;-74